createdAt,value
2022-08-02T00:01:24.186Z,2.60
2022-08-02T00:03:52.108Z,3.63
2022-08-02T00:06:23.668Z,3.43
2022-08-02T00:08:51.581Z,3.27
2022-08-02T00:11:26.618Z,3.20
2022-08-02T00:13:54.512Z,3.40
2022-08-02T00:16:38.284Z,4.40
2022-08-02T00:19:08.742Z,2.93
2022-08-02T00:21:36.679Z,2.87
2022-08-02T00:24:28.987Z,3.40
2022-08-02T00:26:53.041Z,3.30
2022-08-02T00:29:20.983Z,3.13
2022-08-02T00:31:50.254Z,3.50
2022-08-02T00:34:29.839Z,3.40
2022-08-02T00:36:59.086Z,3.40
2022-08-02T00:39:33.482Z,4.23
2022-08-02T00:42:03.791Z,4.00
2022-08-02T00:44:34.586Z,3.93
2022-08-02T00:47:03.873Z,3.97
2022-08-02T00:49:34.312Z,3.53
2022-08-02T00:52:02.392Z,3.83
2022-08-02T00:54:30.348Z,3.67
2022-08-02T00:57:00.284Z,3.30
2022-08-02T00:59:34.318Z,3.67
2022-08-02T01:02:03.693Z,4.03
2022-08-02T01:04:32.376Z,3.80
2022-08-02T01:07:01.368Z,4.20
2022-08-02T01:09:29.554Z,4.83
2022-08-02T01:11:57.582Z,4.50
2022-08-02T01:14:30.820Z,6.60
2022-08-02T01:17:07.585Z,5.30
2022-08-02T01:19:46.537Z,6.50
2022-08-02T01:22:59.445Z,5.80
2022-08-02T01:25:33.798Z,5.67
2022-08-02T01:28:33.360Z,4.80
2022-08-02T01:31:15.207Z,5.70
2022-08-02T01:33:51.152Z,5.33
2022-08-02T01:36:21.217Z,4.70
2022-08-02T01:38:54.324Z,4.40
2022-08-02T01:41:25.136Z,5.30
2022-08-02T01:43:58.967Z,4.37
2022-08-02T01:46:29.349Z,4.83
2022-08-02T01:49:01.308Z,4.33
2022-08-02T01:51:47.696Z,5.30
2022-08-02T01:54:20.611Z,4.87
2022-08-02T01:56:51.079Z,4.43
2022-08-02T01:59:22.818Z,4.50
2022-08-02T02:01:52.995Z,4.80
2022-08-02T02:04:23.237Z,5.10
2022-08-02T02:06:53.308Z,5.27
2022-08-02T02:09:22.795Z,5.07
2022-08-02T02:12:11.426Z,5.60
2022-08-02T02:14:51.818Z,4.77
2022-08-02T02:18:11.981Z,4.80
2022-08-02T02:20:16.419Z,4.73
2022-08-02T02:22:44.894Z,5.10
2022-08-02T02:25:36.481Z,5.10
2022-08-02T02:28:20.350Z,5.43
2022-08-02T02:30:58.570Z,4.50
2022-08-02T02:33:29.484Z,4.93
2022-08-02T02:36:02.120Z,4.93
2022-08-02T02:38:33.203Z,4.60
2022-08-02T02:41:06.691Z,4.70
2022-08-02T02:43:36.944Z,5.00
2022-08-02T02:46:07.502Z,4.67
2022-08-02T02:48:38.219Z,5.17
2022-08-02T02:51:14.270Z,4.80
2022-08-02T02:54:32.357Z,5.10
2022-08-02T02:56:35.357Z,5.17
2022-08-02T02:59:03.936Z,5.13
2022-08-02T03:01:56.836Z,5.03
2022-08-02T03:04:25.960Z,5.80
2022-08-02T03:06:53.856Z,5.03
2022-08-02T03:09:21.931Z,5.50
2022-08-02T03:11:50.537Z,4.63
2022-08-02T03:14:21.461Z,5.00
2022-08-02T03:16:54.902Z,5.00
2022-08-02T03:19:23.927Z,5.20
2022-08-02T03:22:07.168Z,4.97
2022-08-02T03:24:35.005Z,4.97
2022-08-02T03:27:05.279Z,5.20
2022-08-02T03:29:34.734Z,5.23
2022-08-02T03:32:04.894Z,5.13
2022-08-02T03:34:33.015Z,5.20
2022-08-02T03:37:03.156Z,4.60
2022-08-02T03:39:33.344Z,3.93
2022-08-02T03:42:02.025Z,5.17
2022-08-02T03:44:30.112Z,4.63
2022-08-02T03:46:59.008Z,5.47
2022-08-02T03:49:31.651Z,5.80
2022-08-02T03:52:01.706Z,5.07
2022-08-02T03:54:45.498Z,4.30
2022-08-02T03:57:15.494Z,4.50
2022-08-02T03:59:47.415Z,4.07
2022-08-02T04:02:15.489Z,5.80
2022-08-02T04:04:53.074Z,4.80
2022-08-02T04:08:33.995Z,5.03
2022-08-02T04:10:18.158Z,4.20
2022-08-02T04:12:46.753Z,4.40
2022-08-02T04:15:15.882Z,5.27
2022-08-02T04:17:49.350Z,5.20
2022-08-02T04:20:21.073Z,4.30
2022-08-02T04:22:53.825Z,5.60
2022-08-02T04:25:35.287Z,5.00
2022-08-02T04:28:16.599Z,5.50
2022-08-02T04:30:48.846Z,5.30
2022-08-02T04:33:17.479Z,5.07
2022-08-02T04:35:59.270Z,5.57
2022-08-02T04:38:30.235Z,6.37
2022-08-02T04:40:58.303Z,5.40
2022-08-02T04:43:26.219Z,4.27
2022-08-02T04:45:58.374Z,4.30
2022-08-02T04:48:26.306Z,5.40
2022-08-02T04:50:57.971Z,5.23
2022-08-02T04:53:28.452Z,5.37
2022-08-02T04:55:56.302Z,6.00
2022-08-02T04:58:40.113Z,6.10
2022-08-02T05:01:08.849Z,5.93
2022-08-02T05:03:36.922Z,5.33
2022-08-02T05:06:19.443Z,5.70
2022-08-02T05:08:53.187Z,5.07
2022-08-02T05:11:30.085Z,6.10
2022-08-02T05:14:02.952Z,4.97
2022-08-02T05:16:32.130Z,5.47
2022-08-02T05:19:00.972Z,5.73
2022-08-02T05:21:40.358Z,5.70
2022-08-02T05:24:09.060Z,5.67
2022-08-02T05:26:36.955Z,5.40
2022-08-02T05:29:07.290Z,5.37
2022-08-02T05:31:35.169Z,5.07
2022-08-02T05:34:03.033Z,7.20
2022-08-02T05:36:32.328Z,8.13
2022-08-02T05:39:05.059Z,6.60
2022-08-02T05:41:35.630Z,5.43
2022-08-02T05:44:03.605Z,5.33
2022-08-02T05:46:31.585Z,4.73
2022-08-02T05:49:00.508Z,5.40
2022-08-02T05:51:37.113Z,4.90
2022-08-02T05:54:17.061Z,4.97
2022-08-02T05:56:54.058Z,5.77
2022-08-02T05:59:35.375Z,5.50
2022-08-02T06:02:35.222Z,6.30
2022-08-02T06:05:06.289Z,5.57
2022-08-02T06:07:37.634Z,5.80
2022-08-02T06:10:06.981Z,4.80
2022-08-02T06:12:42.749Z,5.43
2022-08-02T06:15:14.389Z,5.83
2022-08-02T06:17:45.651Z,5.50
2022-08-02T06:20:17.080Z,5.20
2022-08-02T06:22:49.663Z,5.70
2022-08-02T06:25:48.063Z,5.47
2022-08-02T06:28:11.421Z,5.70
2022-08-02T06:30:47.775Z,5.73
2022-08-02T06:33:15.999Z,6.00
2022-08-02T06:35:47.384Z,8.63
2022-08-02T06:38:22.279Z,6.17
2022-08-02T06:40:56.697Z,5.63
2022-08-02T06:43:32.083Z,5.70
2022-08-02T06:46:38.109Z,5.67
2022-08-02T06:48:50.629Z,6.07
2022-08-02T06:51:20.144Z,5.07
2022-08-02T06:53:50.034Z,5.37
2022-08-02T06:56:21.057Z,5.00
2022-08-02T06:58:56.838Z,4.73
2022-08-02T07:01:25.006Z,4.93
2022-08-02T07:03:53.048Z,5.80
2022-08-02T07:06:26.731Z,5.60
2022-08-02T07:09:19.528Z,5.70
2022-08-02T07:11:45.952Z,5.80
2022-08-02T07:14:13.824Z,4.57
2022-08-02T07:16:44.247Z,4.60
2022-08-02T07:19:12.196Z,4.63
2022-08-02T07:21:56.467Z,3.60
2022-08-02T07:24:33.750Z,3.60
2022-08-02T07:27:12.028Z,4.37
2022-08-02T07:29:47.946Z,3.73
2022-08-02T07:32:16.579Z,3.50
2022-08-02T07:34:50.885Z,3.17
2022-08-02T07:37:35.657Z,3.00
2022-08-02T07:40:15.299Z,3.30
2022-08-02T07:42:54.491Z,2.50
2022-08-02T07:45:27.795Z,2.43
2022-08-02T07:47:56.777Z,2.67
2022-08-02T07:50:28.333Z,2.60
2022-08-02T07:53:02.342Z,2.27
2022-08-02T07:55:39.795Z,2.53
2022-08-02T07:58:10.886Z,3.30
2022-08-02T08:00:40.847Z,3.07
2022-08-02T08:03:08.811Z,2.50
2022-08-02T08:05:37.877Z,2.60
2022-08-02T08:08:10.196Z,3.17
2022-08-02T08:10:43.158Z,2.93
2022-08-02T08:13:11.049Z,2.07
2022-08-02T08:15:39.163Z,2.67
2022-08-02T08:18:07.698Z,2.90
2022-08-02T08:20:35.719Z,2.50
2022-08-02T08:23:05.953Z,2.43
2022-08-02T08:25:39.622Z,2.13
2022-08-02T08:28:13.558Z,2.60
2022-08-02T08:30:41.724Z,2.63
2022-08-02T08:33:21.994Z,2.10
2022-08-02T08:35:57.383Z,2.63
2022-08-02T08:38:28.099Z,1.97
2022-08-02T08:41:03.777Z,2.20
2022-08-02T08:43:32.979Z,1.80
2022-08-02T08:46:00.866Z,2.07
2022-08-02T08:48:31.890Z,1.80
2022-08-02T08:51:08.864Z,1.87
2022-08-02T08:53:46.256Z,1.80
2022-08-02T08:56:16.605Z,2.03
2022-08-02T08:58:47.389Z,2.50
2022-08-02T09:01:17.929Z,2.60
2022-08-02T09:03:48.934Z,2.30
2022-08-02T09:06:16.855Z,2.43
2022-08-02T09:08:44.809Z,2.07
2022-08-02T09:11:16.793Z,2.07
2022-08-02T09:13:57.212Z,2.60
2022-08-02T09:16:37.692Z,2.10
2022-08-02T09:19:19.994Z,1.80
2022-08-02T09:22:04.952Z,2.20
2022-08-02T09:24:43.088Z,2.23
2022-08-02T09:27:17.907Z,2.00
2022-08-02T09:30:12.269Z,2.00
2022-08-02T09:32:49.807Z,2.13
2022-08-02T09:36:05.216Z,2.10
2022-08-02T09:38:23.352Z,2.00
2022-08-02T09:40:54.001Z,2.73
2022-08-02T09:43:22.245Z,2.50
2022-08-02T09:45:51.536Z,1.90
2022-08-02T09:48:21.617Z,2.03
2022-08-02T09:50:49.670Z,2.30
2022-08-02T09:53:19.590Z,2.40
2022-08-02T09:55:59.424Z,2.47
2022-08-02T09:58:27.437Z,3.03
2022-08-02T10:00:58.894Z,2.50
2022-08-02T10:03:33.963Z,2.60
2022-08-02T10:06:08.524Z,2.60
2022-08-02T10:08:37.222Z,2.60
2022-08-02T10:11:08.353Z,3.07
2022-08-02T10:13:37.214Z,2.97
2022-08-02T10:16:09.307Z,3.63
2022-08-02T10:18:40.322Z,3.20
2022-08-02T10:21:14.869Z,2.80
2022-08-02T10:23:48.157Z,2.73
2022-08-02T10:26:20.430Z,3.13
2022-08-02T10:28:55.436Z,2.50
2022-08-02T10:31:31.073Z,2.50
2022-08-02T10:36:44.089Z,2.80
2022-08-02T10:39:12.823Z,2.90
2022-08-02T10:44:29.742Z,3.40
2022-08-02T10:47:25.580Z,3.10
2022-08-02T10:49:54.955Z,2.17
2022-08-02T10:52:25.752Z,2.90
2022-08-02T10:55:00.028Z,2.60
2022-08-02T10:57:30.049Z,3.93
2022-08-02T10:59:59.618Z,2.60
2022-08-02T11:02:40.450Z,3.30
2022-08-02T11:05:13.679Z,3.50
2022-08-02T11:07:47.575Z,2.30
2022-08-02T11:10:44.320Z,2.70
2022-08-02T11:13:26.336Z,2.50
2022-08-02T11:16:01.488Z,2.87
2022-08-02T11:19:06.966Z,3.60
2022-08-02T11:21:36.232Z,3.70
2022-08-02T11:24:35.679Z,2.80
2022-08-02T11:27:04.761Z,3.00
2022-08-02T11:29:41.318Z,2.70
2022-08-02T11:32:10.640Z,2.97
2022-08-02T11:34:40.456Z,3.33
2022-08-02T11:37:08.370Z,2.73
2022-08-02T11:39:36.341Z,2.40
2022-08-02T11:42:04.383Z,3.63
2022-08-02T11:44:41.640Z,3.53
2022-08-02T11:47:09.804Z,3.40
2022-08-02T11:49:42.768Z,3.03
2022-08-02T11:52:11.946Z,3.50
2022-08-02T11:54:41.506Z,3.17
2022-08-02T11:57:21.171Z,3.47
2022-08-02T11:59:51.861Z,3.70
2022-08-02T12:02:20.969Z,3.50
2022-08-02T12:05:00.476Z,4.20
2022-08-02T12:07:34.665Z,3.57
2022-08-02T12:10:11.626Z,3.47
2022-08-02T12:12:50.748Z,4.10
2022-08-02T12:15:36.561Z,3.13
2022-08-02T12:18:22.676Z,3.00
2022-08-02T12:20:54.198Z,3.40
2022-08-02T12:23:22.075Z,3.13
2022-08-02T12:26:01.166Z,3.50
2022-08-02T12:28:29.143Z,2.90
2022-08-02T12:31:02.450Z,3.00
2022-08-02T12:33:45.195Z,2.50
2022-08-02T12:36:24.072Z,3.10
2022-08-02T12:38:52.845Z,2.80
2022-08-02T12:41:30.200Z,3.20
2022-08-02T12:44:00.463Z,2.20
2022-08-02T12:46:29.106Z,2.37
2022-08-02T12:49:17.230Z,2.50
2022-08-02T12:51:59.200Z,1.93
2022-08-02T12:54:32.145Z,2.50
2022-08-02T12:57:11.450Z,2.53
2022-08-02T12:59:41.092Z,2.50
2022-08-02T13:02:14.438Z,2.53
2022-08-02T13:04:49.805Z,2.33
2022-08-02T13:07:22.780Z,2.00
2022-08-02T13:09:50.651Z,2.63
2022-08-02T13:12:30.346Z,2.00
2022-08-02T13:14:58.248Z,2.03
2022-08-02T13:17:26.182Z,2.00
2022-08-02T13:20:07.024Z,2.40
2022-08-02T13:22:42.767Z,2.27
2022-08-02T13:25:22.815Z,2.57
2022-08-02T13:27:50.921Z,2.30
2022-08-02T13:30:20.396Z,1.90
2022-08-02T13:32:48.317Z,2.60
2022-08-02T13:35:17.859Z,1.73
2022-08-02T13:37:50.452Z,3.03
2022-08-02T13:40:22.049Z,2.30
2022-08-02T13:42:50.341Z,2.20
2022-08-02T13:45:20.572Z,2.07
2022-08-02T13:48:04.028Z,2.20
2022-08-02T13:50:33.938Z,1.90
2022-08-02T13:53:03.159Z,1.77
2022-08-02T13:55:31.522Z,2.00
2022-08-02T13:57:59.674Z,2.80
2022-08-02T14:00:34.740Z,1.80
2022-08-02T14:03:05.723Z,2.10
2022-08-02T14:05:39.396Z,2.60
2022-08-02T14:08:25.236Z,2.20
2022-08-02T14:10:55.831Z,2.30
2022-08-02T14:13:26.813Z,2.40
2022-08-02T14:16:04.805Z,2.13
2022-08-02T14:18:32.796Z,2.27
2022-08-02T14:21:03.776Z,2.23
2022-08-02T14:23:46.785Z,2.17
2022-08-02T14:26:27.450Z,2.47
2022-08-02T14:28:55.747Z,2.00
2022-08-02T14:31:23.719Z,2.23
2022-08-02T14:33:57.755Z,2.20
2022-08-02T14:36:28.306Z,2.10
2022-08-02T14:38:58.006Z,2.23
2022-08-02T14:41:25.975Z,2.07
2022-08-02T14:44:05.862Z,2.37
2022-08-02T14:46:34.639Z,2.00
2022-08-02T14:49:03.761Z,1.83
2022-08-02T14:51:35.453Z,1.63
2022-08-02T14:54:05.801Z,2.10
2022-08-02T14:56:36.598Z,2.03
2022-08-02T14:59:13.990Z,2.37
2022-08-02T15:01:41.960Z,1.80
2022-08-02T15:04:09.938Z,2.00
2022-08-02T15:06:40.189Z,1.77
2022-08-02T15:09:11.769Z,1.83
2022-08-02T15:11:47.772Z,1.73
2022-08-02T15:14:18.534Z,2.60
2022-08-02T15:16:58.000Z,2.20
2022-08-02T15:19:52.965Z,2.20
2022-08-02T15:22:17.061Z,2.27
2022-08-02T15:24:49.403Z,2.00
2022-08-02T15:27:17.725Z,1.93
2022-08-02T15:29:46.920Z,2.00
2022-08-02T15:32:18.422Z,1.90
2022-08-02T15:34:52.741Z,2.00
2022-08-02T15:37:20.698Z,2.30
2022-08-02T15:39:52.373Z,2.20
2022-08-02T15:42:21.258Z,2.10
2022-08-02T15:45:01.948Z,2.17
2022-08-02T15:47:37.040Z,2.33
2022-08-02T15:50:08.716Z,2.20
2022-08-02T15:52:40.946Z,2.37
2022-08-02T15:55:10.449Z,2.23
2022-08-02T15:57:38.374Z,2.90
2022-08-02T16:00:17.847Z,2.20
2022-08-02T16:02:48.713Z,2.13
2022-08-02T16:05:18.024Z,2.20
2022-08-02T16:07:48.396Z,2.00
2022-08-02T16:10:26.541Z,2.73
2022-08-02T16:13:14.452Z,2.60
2022-08-02T16:15:44.421Z,2.30
2022-08-02T16:18:14.811Z,2.50
2022-08-02T16:20:45.195Z,1.80
2022-08-02T16:23:15.424Z,2.30
2022-08-02T16:25:44.686Z,2.30
2022-08-02T16:28:15.046Z,2.50
2022-08-02T16:30:54.412Z,2.13
2022-08-02T16:33:33.282Z,1.90
2022-08-02T16:36:01.306Z,2.40
2022-08-02T16:38:31.438Z,1.80
2022-08-02T16:41:02.755Z,3.03
2022-08-02T16:43:30.829Z,2.77
2022-08-02T16:45:58.752Z,2.87
2022-08-02T16:48:32.052Z,2.37
2022-08-02T16:51:00.554Z,1.90
2022-08-02T16:53:36.998Z,2.10
2022-08-02T16:56:17.858Z,2.00
2022-08-02T16:58:52.601Z,2.40
2022-08-02T17:01:27.310Z,2.40
2022-08-02T17:03:57.984Z,2.30
2022-08-02T17:06:27.507Z,2.30
2022-08-02T17:08:56.179Z,2.23
2022-08-02T17:11:25.608Z,1.90
2022-08-02T17:13:53.987Z,2.20
2022-08-02T17:16:25.842Z,2.10
2022-08-02T17:18:57.524Z,1.80
2022-08-02T17:21:33.825Z,2.10
2022-08-02T17:24:05.869Z,1.93
2022-08-02T17:26:38.368Z,2.47
2022-08-02T17:29:15.163Z,1.63
2022-08-02T17:32:05.152Z,2.03
2022-08-02T17:34:40.171Z,1.70
2022-08-02T17:37:24.203Z,1.40
2022-08-02T17:39:52.340Z,1.57
2022-08-02T17:42:28.779Z,4.27
2022-08-02T17:45:06.868Z,2.03
2022-08-02T17:48:03.925Z,2.17
2022-08-02T17:50:33.237Z,1.90
2022-08-02T17:53:01.910Z,2.10
2022-08-02T17:55:42.258Z,1.60
2022-08-02T17:58:12.533Z,1.90
2022-08-02T18:00:45.964Z,2.23
2022-08-02T18:03:14.708Z,1.97
2022-08-02T18:05:55.313Z,1.87
2022-08-02T18:08:24.138Z,1.87
2022-08-02T18:10:58.029Z,1.67
2022-08-02T18:13:32.925Z,2.70
2022-08-02T18:16:04.105Z,3.13
2022-08-02T18:18:32.115Z,2.03
2022-08-02T18:21:15.809Z,1.70
2022-08-02T18:23:58.222Z,1.67
2022-08-02T18:26:30.064Z,1.70
2022-08-02T18:29:04.124Z,1.57
2022-08-02T18:31:39.241Z,1.60
2022-08-02T18:34:08.654Z,2.17
2022-08-02T18:36:36.765Z,2.20
2022-08-02T18:39:15.588Z,1.63
2022-08-02T18:41:45.022Z,1.90
2022-08-02T18:44:18.725Z,1.87
2022-08-02T18:46:46.872Z,1.40
2022-08-02T18:49:20.289Z,2.40
2022-08-02T18:51:49.183Z,1.83
2022-08-02T18:54:30.581Z,1.67
2022-08-02T18:56:59.362Z,1.80
2022-08-02T18:59:28.626Z,1.87
2022-08-02T19:02:08.515Z,2.13
2022-08-02T19:04:36.421Z,1.60
2022-08-02T19:07:08.068Z,1.87
2022-08-02T19:09:40.028Z,1.80
2022-08-02T19:12:11.324Z,2.00
2022-08-02T19:14:43.381Z,1.80
2022-08-02T19:17:54.070Z,2.00
2022-08-02T19:19:59.555Z,1.67
2022-08-02T19:22:27.960Z,1.60
2022-08-02T19:25:01.806Z,2.30
2022-08-02T19:30:22.241Z,2.13
2022-08-02T19:33:03.241Z,1.40
2022-08-02T19:35:37.454Z,1.90
2022-08-02T19:38:25.404Z,2.00
2022-08-02T19:40:54.290Z,1.97
2022-08-02T19:44:26.242Z,1.60
2022-08-02T19:46:16.258Z,2.00
2022-08-02T19:48:47.453Z,1.80
2022-08-02T19:51:15.604Z,2.07
2022-08-02T19:54:05.815Z,2.30
2022-08-02T19:56:41.807Z,2.47
2022-08-02T19:59:13.102Z,2.30
2022-08-02T20:01:48.813Z,2.70
2022-08-02T20:04:22.883Z,2.30
2022-08-02T20:06:51.221Z,1.90
2022-08-02T20:09:22.273Z,1.77
2022-08-02T20:11:54.342Z,2.30
2022-08-02T20:14:26.712Z,2.30
2022-08-02T20:16:56.852Z,2.10
2022-08-02T20:19:30.780Z,2.20
2022-08-02T20:22:01.219Z,2.10
2022-08-02T20:24:29.569Z,2.20
2022-08-02T20:26:59.431Z,2.70
2022-08-02T20:29:43.542Z,3.20
2022-08-02T20:32:22.491Z,3.20
2022-08-02T20:34:53.523Z,3.03
2022-08-02T20:38:00.339Z,2.87
2022-08-02T20:40:16.772Z,2.80
2022-08-02T20:42:45.514Z,2.93
2022-08-02T20:45:18.610Z,2.10
2022-08-02T20:47:49.858Z,2.27
2022-08-02T20:50:36.781Z,2.47
2022-08-02T20:53:05.860Z,2.17
2022-08-02T20:55:35.525Z,2.93
2022-08-02T20:58:04.381Z,2.30
2022-08-02T21:00:32.497Z,2.17
2022-08-02T21:03:02.682Z,3.10
2022-08-02T21:05:43.964Z,2.00
2022-08-02T21:08:24.331Z,2.00
2022-08-02T21:10:53.282Z,2.50
2022-08-02T21:16:18.280Z,2.47
2022-08-02T21:18:48.815Z,2.17
2022-08-02T21:21:29.696Z,2.47
2022-08-02T21:23:58.730Z,2.10
2022-08-02T21:26:31.173Z,2.30
2022-08-02T21:29:03.945Z,2.30
2022-08-02T21:31:36.433Z,2.40
2022-08-02T21:34:22.438Z,2.27
2022-08-02T21:36:55.699Z,1.70
2022-08-02T21:39:23.806Z,1.97
2022-08-02T21:41:51.848Z,2.30
2022-08-02T21:44:21.573Z,1.83
2022-08-02T21:46:51.974Z,2.03
2022-08-02T21:49:41.164Z,2.20
2022-08-02T21:52:10.499Z,2.00
2022-08-02T21:54:40.123Z,2.00
2022-08-02T21:57:15.398Z,2.33
2022-08-02T21:59:47.198Z,1.97
2022-08-02T22:02:18.624Z,2.20
2022-08-02T22:04:48.381Z,2.20
2022-08-02T22:07:17.479Z,1.87
2022-08-02T22:09:55.411Z,2.20
2022-08-02T22:12:27.130Z,1.73
2022-08-02T22:14:56.607Z,2.37
2022-08-02T22:17:51.424Z,2.10
2022-08-02T22:20:23.522Z,1.70
2022-08-02T22:22:52.704Z,2.10
2022-08-02T22:25:36.496Z,2.30
2022-08-02T22:28:37.774Z,2.60
2022-08-02T22:30:53.926Z,2.10
2022-08-02T22:33:46.590Z,2.87
2022-08-02T22:36:30.456Z,2.20
2022-08-02T22:38:58.344Z,1.93
2022-08-02T22:42:05.590Z,2.30
2022-08-02T22:44:18.453Z,2.27
2022-08-02T22:46:51.626Z,2.23
2022-08-02T22:49:37.597Z,1.70
2022-08-02T22:52:14.675Z,2.10
2022-08-02T22:54:47.904Z,1.97
2022-08-02T22:57:15.839Z,2.10
2022-08-02T22:58:48.174Z,1.83
2022-08-02T22:59:02.193Z,2.47
2022-08-02T22:59:43.898Z,1.90
2022-08-02T23:02:14.510Z,2.03
2022-08-02T23:04:42.510Z,2.10
2022-08-02T23:07:12.478Z,2.97
2022-08-02T23:09:41.714Z,2.20
2022-08-02T23:12:11.372Z,1.97
2022-08-02T23:14:39.212Z,2.07
2022-08-02T23:17:24.566Z,2.70
2022-08-02T23:19:52.590Z,2.83
2022-08-02T23:22:21.744Z,2.10
2022-08-02T23:25:01.947Z,2.00
2022-08-02T23:27:32.497Z,1.77
2022-08-02T23:30:00.907Z,2.03
2022-08-02T23:32:31.281Z,2.30
2022-08-02T23:35:01.667Z,2.07
2022-08-02T23:37:59.554Z,1.80
2022-08-02T23:40:38.763Z,2.80
2022-08-02T23:43:15.374Z,2.17
2022-08-02T23:45:46.597Z,2.20
2022-08-02T23:48:14.659Z,2.20
2022-08-02T23:50:42.550Z,2.40
2022-08-02T23:53:10.439Z,2.40
2022-08-02T23:55:45.726Z,2.70
2022-08-02T23:58:13.949Z,2.90
